createdAt,value
2022-09-30T00:02:23.935Z,8.1
2022-09-30T00:07:26.106Z,7.3
2022-09-30T00:12:28.296Z,7.3
2022-09-30T00:17:30.581Z,8.1
2022-09-30T00:22:37.408Z,8.8
2022-09-30T00:27:39.722Z,8.6
2022-09-30T00:32:41.812Z,8.6
2022-09-30T00:37:44.950Z,8.6
2022-09-30T00:42:47.061Z,8.9
2022-09-30T00:47:49.186Z,8.8
2022-09-30T00:52:51.296Z,8.4
2022-09-30T00:57:53.200Z,8.3
2022-09-30T01:02:56.158Z,8.6
2022-09-30T01:07:59.367Z,9.1
2022-09-30T01:13:01.509Z,9.9
2022-09-30T01:18:03.807Z,9.5
2022-09-30T01:23:07.060Z,9
2022-09-30T01:28:09.181Z,9.1
2022-09-30T01:33:11.487Z,9.1
2022-09-30T01:38:13.533Z,8.6
2022-09-30T01:43:15.482Z,8.7
2022-09-30T01:48:17.366Z,8.7
2022-09-30T01:53:19.649Z,9
2022-09-30T01:58:26.068Z,9.4
2022-09-30T02:03:28.018Z,9.6
2022-09-30T02:08:30.006Z,9.7
2022-09-30T02:13:32.978Z,9.3
2022-09-30T02:18:37.936Z,10.1
2022-09-30T02:23:40.192Z,10.1
2022-09-30T02:28:43.472Z,10.6
2022-09-30T02:33:45.513Z,10.3
2022-09-30T02:38:51.960Z,10.7
2022-09-30T02:43:54.086Z,10.5
2022-09-30T02:48:57.216Z,10.3
2022-09-30T02:53:59.248Z,10.6
2022-09-30T02:59:01.483Z,10.8
2022-09-30T03:04:04.610Z,11.2
2022-09-30T03:09:08.222Z,11
2022-09-30T03:14:10.550Z,11.5
2022-09-30T03:19:12.433Z,11.7
2022-09-30T03:24:14.586Z,12.7
2022-09-30T03:29:16.964Z,13.1
2022-09-30T03:34:19.023Z,12.8
2022-09-30T03:39:21.210Z,13.5
2022-09-30T03:44:23.640Z,14.1
2022-09-30T03:49:25.598Z,15.5
2022-09-30T03:54:27.848Z,15.3
2022-09-30T03:59:29.955Z,14.5
2022-09-30T04:04:31.994Z,13.9
2022-09-30T04:09:34.178Z,13.9
2022-09-30T04:14:36.460Z,14.5
2022-09-30T04:19:38.343Z,14.1
2022-09-30T04:24:40.747Z,14
2022-09-30T04:29:43.038Z,13.5
2022-09-30T04:34:44.958Z,13.7
2022-09-30T04:39:46.992Z,13.1
2022-09-30T04:44:48.958Z,14.1
2022-09-30T04:49:51.172Z,13.4
2022-09-30T04:54:53.276Z,13.9
2022-09-30T04:59:55.288Z,14.1
2022-09-30T05:04:57.270Z,13.8
2022-09-30T05:09:59.132Z,13.9
2022-09-30T05:15:00.996Z,15.6
2022-09-30T05:20:02.869Z,15.9
2022-09-30T05:25:04.766Z,16.8
2022-09-30T05:30:06.774Z,16.9
2022-09-30T05:35:08.687Z,16.6
2022-09-30T05:40:10.694Z,16.5
2022-09-30T05:45:13.084Z,16.3
2022-09-30T05:50:13.668Z,16.5
2022-09-30T05:55:15.640Z,16.3
2022-09-30T06:00:17.635Z,17.3
2022-09-30T06:05:19.518Z,16.1
2022-09-30T06:10:21.436Z,22.3
2022-09-30T06:15:21.905Z,14.5
2022-09-30T06:20:23.899Z,13.1
2022-09-30T06:25:25.903Z,13.5
2022-09-30T06:30:35.305Z,13.1
2022-09-30T06:35:37.754Z,13
2022-09-30T06:40:39.766Z,13.3
2022-09-30T06:45:41.774Z,12.1
2022-09-30T06:51:01.115Z,11.9
2022-09-30T06:55:44.056Z,11.3
2022-09-30T07:00:46.115Z,14.2
2022-09-30T07:05:48.143Z,12.3
2022-09-30T07:10:50.284Z,7.4
2022-09-30T07:15:52.149Z,6.7
2022-09-30T07:20:54.206Z,4.6
2022-09-30T07:25:56.472Z,4.2
2022-09-30T07:31:32.294Z,3.7
2022-09-30T07:36:07.069Z,2
2022-09-30T07:41:09.164Z,1.8
2022-09-30T07:46:11.793Z,1.9
2022-09-30T07:51:14.102Z,1.9
2022-09-30T07:56:16.031Z,1.7
2022-09-30T08:01:18.007Z,1.8
2022-09-30T08:06:20.033Z,1.9
2022-09-30T08:11:22.118Z,1.9
2022-09-30T08:16:24.136Z,1.4
2022-09-30T08:21:26.198Z,1.3
2022-09-30T08:26:28.217Z,1.3
2022-09-30T08:31:30.388Z,1.1
2022-09-30T08:36:32.669Z,1
2022-09-30T08:41:34.793Z,1.2
2022-09-30T08:46:35.195Z,0.8
2022-09-30T08:51:37.179Z,0.7
2022-09-30T08:56:39.244Z,0.7
2022-09-30T09:01:41.321Z,0.8
2022-09-30T09:06:43.228Z,0.7
2022-09-30T09:11:45.245Z,0.6
2022-09-30T09:16:47.388Z,0.6
2022-09-30T09:21:49.722Z,0.6
2022-09-30T09:26:51.691Z,0.6
2022-09-30T09:31:53.887Z,0.7
2022-09-30T09:36:55.872Z,0.7
2022-09-30T09:41:58.013Z,0.8
2022-09-30T09:46:59.989Z,0.7
2022-09-30T09:52:02.239Z,0.7
2022-09-30T09:57:04.346Z,0.8
2022-09-30T10:02:06.373Z,0.7
2022-09-30T10:07:08.468Z,0.7
2022-09-30T10:12:10.360Z,0.8
2022-09-30T10:17:12.333Z,4.3
2022-09-30T10:22:14.507Z,0.7
2022-09-30T10:27:16.938Z,0.7
2022-09-30T10:32:19.224Z,0.6
2022-09-30T10:37:21.540Z,0.6
2022-09-30T10:42:27.577Z,0.6
2022-09-30T10:47:37.103Z,0.5
2022-09-30T10:52:39.553Z,0.5
2022-09-30T10:57:41.538Z,0.5
2022-09-30T11:02:43.588Z,0.5
2022-09-30T11:07:49.024Z,0.6
2022-09-30T11:12:51.440Z,0.5
2022-09-30T11:17:53.508Z,0.5
2022-09-30T11:22:55.393Z,0.9
2022-09-30T11:27:57.970Z,0.5
2022-09-30T11:33:00.366Z,0.5
2022-09-30T11:38:02.343Z,0.6
2022-09-30T11:43:08.904Z,0.7
2022-09-30T11:48:11.147Z,0.9
2022-09-30T11:53:13.262Z,0.6
2022-09-30T11:58:42.057Z,0.5
2022-09-30T12:03:24.603Z,0.5
2022-09-30T12:08:26.803Z,0.4
2022-09-30T12:13:28.897Z,0.4
2022-09-30T12:18:30.916Z,0.4
2022-09-30T12:23:33.227Z,0.3
2022-09-30T12:28:35.248Z,0.4
2022-09-30T12:33:37.115Z,0.4
2022-09-30T12:38:39.000Z,0.5
2022-09-30T12:43:43.682Z,0.5
2022-09-30T12:49:04.587Z,0.4
2022-09-30T12:54:06.853Z,0.5
2022-09-30T12:59:08.904Z,0.5
2022-09-30T13:04:11.014Z,0.5
2022-09-30T13:09:13.196Z,0.4
2022-09-30T13:14:15.455Z,0.4
2022-09-30T13:19:17.591Z,0.7
2022-09-30T13:24:19.562Z,0.5
2022-09-30T13:29:21.572Z,0.4
2022-09-30T13:34:23.545Z,0.5
2022-09-30T13:39:25.483Z,0.5
2022-09-30T13:44:27.363Z,0.5
2022-09-30T13:49:29.680Z,0.5
2022-09-30T13:54:31.849Z,0.5
2022-09-30T13:59:33.813Z,1.4
2022-09-30T14:04:35.701Z,1.2
2022-09-30T14:09:37.729Z,0.8
2022-09-30T14:14:40.032Z,0.6
2022-09-30T14:19:42.234Z,0.5
2022-09-30T14:24:44.321Z,0.7
2022-09-30T14:29:46.538Z,0.8
2022-09-30T14:34:48.714Z,0.7
2022-09-30T14:39:50.761Z,0.8
2022-09-30T14:44:56.227Z,0.6
2022-09-30T14:49:58.706Z,0.5
2022-09-30T14:55:00.683Z,0.5
2022-09-30T15:00:03.342Z,2.8
2022-09-30T15:05:05.945Z,1.4
2022-09-30T15:10:08.346Z,0.7
2022-09-30T15:15:10.583Z,0.7
2022-09-30T15:20:12.683Z,0.7
2022-09-30T15:25:14.739Z,0.7
2022-09-30T15:30:16.968Z,0.9
2022-09-30T15:35:19.244Z,0.7
2022-09-30T15:40:21.254Z,8.6
2022-09-30T15:45:23.855Z,0.6
2022-09-30T15:50:26.920Z,0.6
2022-09-30T15:55:29.218Z,0.6
2022-09-30T16:00:31.448Z,0.6
2022-09-30T16:05:33.831Z,0.8
2022-09-30T16:10:35.865Z,1.9
2022-09-30T16:15:38.059Z,1.8
2022-09-30T16:20:40.390Z,1.2
2022-09-30T16:25:42.357Z,1.3
2022-09-30T16:30:44.660Z,1.2
2022-09-30T16:35:46.960Z,1
2022-09-30T16:40:48.878Z,1.1
2022-09-30T16:45:51.134Z,1.3
2022-09-30T16:50:53.498Z,1.5
2022-09-30T16:55:56.065Z,1.5
2022-09-30T17:00:59.027Z,1.8
2022-09-30T17:06:02.118Z,1.8
2022-09-30T17:11:04.452Z,2.1
2022-09-30T17:16:06.979Z,2
2022-09-30T17:21:09.581Z,2.2
2022-09-30T17:26:12.120Z,2.4
2022-09-30T17:31:14.775Z,2.6
2022-09-30T17:36:19.485Z,2.7
2022-09-30T17:41:21.896Z,2.8
2022-09-30T17:46:24.633Z,3.4
2022-09-30T17:51:27.931Z,3.9
2022-09-30T17:56:30.324Z,4.6
2022-09-30T18:01:33.103Z,5.9
2022-09-30T18:06:36.788Z,4
2022-09-30T18:11:44.575Z,6.5
2022-09-30T18:16:47.131Z,4.2
2022-09-30T18:21:49.272Z,3.6
2022-09-30T18:26:51.279Z,4.8
2022-09-30T18:31:53.382Z,4.3
2022-09-30T18:36:58.458Z,7.3
2022-09-30T18:42:00.464Z,9.3
2022-09-30T18:47:05.341Z,10.7
2022-09-30T18:52:08.887Z,12.4
2022-09-30T18:57:15.099Z,15.4
2022-09-30T19:02:18.502Z,16.2
2022-09-30T19:07:20.832Z,11.5
2022-09-30T19:12:23.915Z,10.8
2022-09-30T19:17:26.755Z,30.8
2022-09-30T19:22:28.859Z,15.8
2022-09-30T19:27:32.834Z,14.3
2022-09-30T19:32:34.962Z,12.9
2022-09-30T19:37:37.006Z,12.3
2022-09-30T19:42:39.730Z,9.5
2022-09-30T19:47:42.598Z,10.2
2022-09-30T19:52:57.733Z,9.4
2022-09-30T19:57:50.365Z,10.9
2022-09-30T20:02:53.056Z,13.7
2022-09-30T20:07:55.833Z,13
2022-09-30T20:12:58.458Z,11.8
2022-09-30T20:18:01.166Z,11.3
2022-09-30T20:23:02.909Z,12.2
2022-09-30T20:28:06.117Z,11.1
2022-09-30T20:33:08.801Z,10.5
2022-09-30T20:38:11.036Z,7.1
2022-09-30T20:43:12.989Z,6.9
2022-09-30T20:48:15.328Z,7.6
2022-09-30T20:53:20.371Z,6.7
2022-09-30T20:58:22.336Z,6.2
2022-09-30T21:03:24.561Z,5.2
2022-09-30T21:08:26.724Z,4.5
2022-09-30T21:13:29.023Z,5.4
2022-09-30T21:18:31.670Z,5.9
2022-09-30T21:23:34.113Z,5.5
2022-09-30T21:28:36.161Z,5.5
2022-09-30T21:33:38.277Z,4.9
2022-09-30T21:38:40.336Z,6
2022-09-30T21:43:42.300Z,5.6
2022-09-30T21:48:44.301Z,4.9
2022-09-30T21:53:46.853Z,4.3
2022-09-30T21:58:49.019Z,3.9
2022-09-30T22:03:51.061Z,4.2
2022-09-30T22:08:53.088Z,4
2022-09-30T22:13:55.310Z,4.5
2022-09-30T22:18:57.504Z,4.3
2022-09-30T22:23:59.446Z,5
2022-09-30T22:29:01.623Z,5.7
2022-09-30T22:34:03.672Z,6.2
2022-09-30T22:39:05.889Z,6.5
2022-09-30T22:44:07.921Z,6.4
2022-09-30T22:49:10.067Z,6.7
2022-09-30T22:54:12.147Z,7.2
2022-09-30T22:59:14.109Z,8.3
2022-09-30T23:04:16.350Z,7.9
2022-09-30T23:09:18.854Z,8.1
2022-09-30T23:14:20.835Z,7.8
2022-09-30T23:19:23.144Z,6.7
2022-09-30T23:24:25.472Z,5.1
2022-09-30T23:29:27.556Z,4.8
2022-09-30T23:34:29.535Z,4.3
2022-09-30T23:39:31.994Z,4.5
2022-09-30T23:44:33.990Z,4.8
2022-09-30T23:49:36.050Z,4.2
2022-09-30T23:54:38.117Z,4.8
2022-09-30T23:59:40.261Z,4.7
